createdAt,value
2022-08-04T00:02:28.695Z,7.47
2022-08-04T00:05:05.375Z,4.18
2022-08-04T00:07:44.151Z,6.05
2022-08-04T00:10:18.201Z,7.70
2022-08-04T00:13:08.538Z,6.47
2022-08-04T00:15:42.581Z,6.13
2022-08-04T00:18:10.609Z,7.82
2022-08-04T00:20:42.487Z,5.47
2022-08-04T00:23:11.374Z,5.95
2022-08-04T00:25:46.641Z,5.75
2022-08-04T00:28:14.924Z,12.82
2022-08-04T00:30:44.311Z,6.55
2022-08-04T00:33:17.591Z,8.95
2022-08-04T00:35:47.080Z,4.03
2022-08-04T00:38:23.556Z,7.03
2022-08-04T00:41:10.713Z,6.00
2022-08-04T00:43:59.558Z,5.88
2022-08-04T00:47:20.292Z,7.32
2022-08-04T00:50:12.316Z,4.60
2022-08-04T00:53:03.682Z,11.50
2022-08-04T00:55:53.705Z,6.15
2022-08-04T00:58:50.517Z,11.70
2022-08-04T01:01:39.869Z,6.50
2022-08-04T01:04:19.731Z,4.85
2022-08-04T01:07:13.383Z,4.55
2022-08-04T01:09:57.217Z,4.72
2022-08-04T01:15:23.344Z,8.13
2022-08-04T01:18:05.988Z,4.28
2022-08-04T01:20:43.042Z,5.40
2022-08-04T01:23:40.370Z,15.85
2022-08-04T01:26:43.869Z,9.98
2022-08-04T01:29:29.347Z,8.00
2022-08-04T01:32:49.028Z,8.48
2022-08-04T01:39:24.240Z,13.63
2022-08-04T01:41:58.120Z,5.85
2022-08-04T01:44:48.915Z,8.50
2022-08-04T01:47:27.319Z,5.28
2022-08-04T01:50:02.320Z,13.43
2022-08-04T01:52:55.395Z,4.95
2022-08-04T01:55:54.127Z,10.63
2022-08-04T01:58:22.962Z,8.07
2022-08-04T02:00:58.090Z,10.13
2022-08-04T02:04:21.405Z,9.52
2022-08-04T02:06:29.782Z,5.80
2022-08-04T02:09:11.671Z,7.32
2022-08-04T02:12:16.244Z,7.28
2022-08-04T02:15:07.343Z,9.77
2022-08-04T02:17:46.913Z,9.73
2022-08-04T02:20:38.325Z,9.82
2022-08-04T02:23:16.381Z,11.45
2022-08-04T02:25:49.633Z,14.95
2022-08-04T02:28:43.460Z,11.60
2022-08-04T02:31:29.093Z,6.07
2022-08-04T02:34:08.326Z,7.45
2022-08-04T02:36:43.791Z,9.20
2022-08-04T02:39:47.756Z,9.00
2022-08-04T02:42:23.181Z,8.68
2022-08-04T02:44:57.367Z,14.70
2022-08-04T02:48:28.791Z,10.48
2022-08-04T02:50:35.265Z,14.68
2022-08-04T02:53:10.792Z,8.23
2022-08-04T02:55:40.046Z,15.63
2022-08-04T02:58:33.281Z,5.78
2022-08-04T03:01:01.981Z,8.80
2022-08-04T03:03:38.213Z,16.77
2022-08-04T03:06:28.879Z,8.40
2022-08-04T03:09:29.368Z,9.23
2022-08-04T03:12:41.879Z,10.45
2022-08-04T03:15:46.054Z,8.07
2022-08-04T03:18:51.680Z,12.93
2022-08-04T03:21:54.945Z,8.43
2022-08-04T03:25:03.533Z,11.93
2022-08-04T03:27:58.717Z,7.00
2022-08-04T03:30:49.340Z,8.23
2022-08-04T03:34:04.685Z,7.90
2022-08-04T03:37:00.021Z,9.18
2022-08-04T03:40:00.423Z,12.73
2022-08-04T03:43:02.991Z,13.90
2022-08-04T03:46:04.596Z,21.38
2022-08-04T03:48:53.837Z,16.77
2022-08-04T03:52:01.370Z,27.83
2022-08-04T04:05:59.864Z,27.50
2022-08-04T04:08:45.565Z,35.55
2022-08-04T04:11:55.289Z,34.33
2022-08-04T04:14:43.698Z,39.70
2022-08-04T04:17:50.071Z,35.38
2022-08-04T04:20:43.725Z,40.00
2022-08-04T04:23:24.653Z,35.95
2022-08-04T04:26:22.208Z,35.47
2022-08-04T04:29:15.663Z,37.28
2022-08-04T04:31:54.147Z,40.55
2022-08-04T04:34:42.806Z,38.38
2022-08-04T04:37:26.802Z,38.30
2022-08-04T04:40:05.097Z,37.90
2022-08-04T04:42:44.185Z,37.35
2022-08-04T04:45:27.183Z,36.05
2022-08-04T04:48:09.254Z,34.87
2022-08-04T04:50:49.699Z,44.57
2022-08-04T04:53:24.465Z,32.75
2022-08-04T04:55:56.076Z,31.50
2022-08-04T04:58:25.611Z,33.85
2022-08-04T05:01:30.554Z,28.75
2022-08-04T05:04:26.704Z,28.25
2022-08-04T05:07:22.120Z,31.15
2022-08-04T05:10:03.366Z,26.35
2022-08-04T05:14:32.336Z,28.30
2022-08-04T05:15:45.104Z,23.20
2022-08-04T05:18:16.333Z,21.30
2022-08-04T05:20:48.891Z,18.90
2022-08-04T05:23:19.636Z,18.80
2022-08-04T05:25:59.281Z,25.10
2022-08-04T05:28:31.599Z,18.42
2022-08-04T05:31:04.013Z,16.45
2022-08-04T05:33:35.283Z,18.50
2022-08-04T05:36:20.723Z,15.18
2022-08-04T05:39:00.008Z,17.10
2022-08-04T05:41:32.386Z,14.80
2022-08-04T05:44:15.240Z,18.17
2022-08-04T05:46:45.533Z,11.80
2022-08-04T05:49:22.405Z,16.00
2022-08-04T05:51:49.860Z,15.95
2022-08-04T05:54:18.425Z,11.93
2022-08-04T05:56:45.885Z,17.73
2022-08-04T05:59:14.004Z,15.52
2022-08-04T06:01:55.764Z,14.30
2022-08-04T06:04:28.148Z,18.60
2022-08-04T06:06:55.379Z,18.33
2022-08-04T06:09:22.462Z,10.70
2022-08-04T06:12:00.789Z,15.60
2022-08-04T06:14:35.790Z,23.05
2022-08-04T06:18:32.413Z,13.80
2022-08-04T06:20:03.983Z,13.63
2022-08-04T06:22:44.877Z,13.07
2022-08-04T06:25:15.715Z,12.25
2022-08-04T06:27:44.106Z,12.35
2022-08-04T06:30:14.612Z,11.82
2022-08-04T06:32:50.013Z,11.98
2022-08-04T06:35:19.694Z,14.07
2022-08-04T06:37:48.180Z,14.00
2022-08-04T06:40:31.569Z,11.60
2022-08-04T06:43:01.712Z,13.32
2022-08-04T06:45:29.696Z,10.13
2022-08-04T06:48:00.149Z,11.13
2022-08-04T06:51:26.164Z,11.30
2022-08-04T06:53:15.539Z,11.18
2022-08-04T06:55:45.036Z,14.48
2022-08-04T06:58:13.060Z,11.15
2022-08-04T07:00:44.700Z,8.23
2022-08-04T07:03:14.089Z,13.40
2022-08-04T07:05:42.439Z,10.23
2022-08-04T07:08:11.349Z,10.23
2022-08-04T07:10:39.301Z,12.88
2022-08-04T07:13:07.839Z,13.80
2022-08-04T07:15:36.806Z,7.60
2022-08-04T07:18:05.171Z,7.72
2022-08-04T07:20:36.615Z,8.95
2022-08-04T07:23:05.692Z,7.88
2022-08-04T07:25:59.866Z,10.45
2022-08-04T07:28:22.162Z,9.32
2022-08-04T07:30:49.822Z,5.47
2022-08-04T07:33:18.306Z,22.23
2022-08-04T07:36:08.961Z,11.63
2022-08-04T07:38:37.447Z,7.20
2022-08-04T07:41:35.861Z,11.90
2022-08-04T07:44:04.379Z,7.32
2022-08-04T07:46:31.769Z,6.47
2022-08-04T07:49:00.006Z,12.30
2022-08-04T07:51:28.812Z,14.38
2022-08-04T07:53:56.803Z,9.15
2022-08-04T07:56:24.706Z,7.05
2022-08-04T07:58:51.474Z,8.90
2022-08-04T08:01:19.284Z,5.68
2022-08-04T08:03:47.281Z,7.50
2022-08-04T08:06:17.333Z,7.53
2022-08-04T08:09:13.852Z,11.93
2022-08-04T08:12:37.748Z,8.13
2022-08-04T08:14:30.414Z,5.25
2022-08-04T08:16:58.975Z,7.00
2022-08-04T08:19:25.789Z,12.25
2022-08-04T08:21:59.204Z,6.70
2022-08-04T08:24:29.728Z,6.60
2022-08-04T08:26:57.331Z,5.72
2022-08-04T08:29:26.132Z,6.50
2022-08-04T08:31:57.030Z,6.40
2022-08-04T08:34:27.390Z,9.75
2022-08-04T08:37:02.951Z,14.90
2022-08-04T08:39:38.875Z,13.13
2022-08-04T08:42:40.205Z,5.25
2022-08-04T08:45:54.394Z,7.47
2022-08-04T08:48:55.100Z,6.20
2022-08-04T08:51:47.402Z,3.65
2022-08-04T08:54:54.151Z,4.80
2022-08-04T08:57:59.497Z,4.53
2022-08-04T09:00:33.624Z,3.45
2022-08-04T09:03:30.411Z,5.03
2022-08-04T09:06:31.593Z,3.58
2022-08-04T09:09:31.118Z,7.90
2022-08-04T09:12:07.099Z,6.85
2022-08-04T09:14:42.342Z,3.45
2022-08-04T09:17:19.401Z,4.60
2022-08-04T09:20:01.434Z,4.68
2022-08-04T09:22:39.713Z,5.50
2022-08-04T09:25:11.225Z,6.05
2022-08-04T09:27:50.363Z,4.95
2022-08-04T09:30:23.485Z,8.27
2022-08-04T09:35:37.879Z,4.72
2022-08-04T09:38:14.638Z,4.97
2022-08-04T09:40:53.159Z,4.68
2022-08-04T09:43:59.403Z,3.50
2022-08-04T09:46:30.631Z,5.57
2022-08-04T09:49:07.566Z,9.13
2022-08-04T09:51:59.223Z,3.53
2022-08-04T09:54:33.497Z,3.88
2022-08-04T09:57:08.112Z,4.82
2022-08-04T09:59:43.543Z,7.45
2022-08-04T10:02:15.858Z,5.00
2022-08-04T10:04:44.271Z,5.27
2022-08-04T10:07:26.100Z,6.35
2022-08-04T10:10:12.379Z,6.43
2022-08-04T10:13:00.289Z,7.47
2022-08-04T10:15:33.050Z,3.50
2022-08-04T10:18:12.112Z,6.18
2022-08-04T10:20:55.555Z,6.43
2022-08-04T10:23:56.001Z,3.85
2022-08-04T10:26:32.288Z,4.47
2022-08-04T10:29:04.798Z,9.07
2022-08-04T10:31:35.770Z,5.25
2022-08-04T10:34:12.010Z,6.93
2022-08-04T10:36:45.370Z,3.53
2022-08-04T10:39:43.579Z,6.32
2022-08-04T10:42:11.929Z,5.10
2022-08-04T10:44:57.164Z,6.82
2022-08-04T10:47:32.245Z,4.85
2022-08-04T10:50:03.334Z,4.10
2022-08-04T10:52:34.564Z,9.23
2022-08-04T10:55:08.413Z,5.35
2022-08-04T10:57:39.578Z,6.93
2022-08-04T11:00:09.378Z,7.40
2022-08-04T11:02:46.962Z,5.22
2022-08-04T11:05:27.366Z,5.63
2022-08-04T11:08:00.750Z,14.57
2022-08-04T11:10:33.165Z,7.30
2022-08-04T11:13:04.941Z,8.30
2022-08-04T11:15:38.261Z,5.35
2022-08-04T11:18:16.685Z,7.63
2022-08-04T11:20:53.176Z,4.78
2022-08-04T11:23:26.712Z,6.30
2022-08-04T11:25:59.191Z,22.90
2022-08-04T11:28:38.961Z,6.88
2022-08-04T11:31:11.307Z,3.17
2022-08-04T11:33:44.619Z,10.77
2022-08-04T11:36:22.455Z,16.17
2022-08-04T11:38:56.560Z,5.45
2022-08-04T11:41:37.134Z,5.25
2022-08-04T11:44:10.443Z,5.13
2022-08-04T11:46:43.052Z,5.28
2022-08-04T11:49:21.015Z,4.95
2022-08-04T11:51:51.942Z,3.90
2022-08-04T11:54:20.143Z,9.00
2022-08-04T11:56:46.997Z,5.25
2022-08-04T11:59:14.788Z,4.13
2022-08-04T12:01:53.143Z,5.05
2022-08-04T12:04:35.229Z,6.63
2022-08-04T12:07:40.605Z,6.03
2022-08-04T12:10:14.197Z,2.55
2022-08-04T12:12:46.205Z,16.58
2022-08-04T12:15:20.557Z,4.22
2022-08-04T12:17:54.566Z,3.88
2022-08-04T12:20:38.324Z,5.28
2022-08-04T12:23:17.569Z,7.13
2022-08-04T12:25:48.907Z,5.72
2022-08-04T12:28:22.603Z,10.13
2022-08-04T12:31:01.068Z,3.72
2022-08-04T12:34:02.987Z,4.80
2022-08-04T12:36:30.565Z,4.60
2022-08-04T12:39:07.517Z,13.30
2022-08-04T12:41:42.513Z,4.65
2022-08-04T12:44:36.219Z,3.80
2022-08-04T12:47:26.859Z,3.78
2022-08-04T12:49:56.338Z,5.53
2022-08-04T12:52:51.742Z,17.33
2022-08-04T12:55:18.953Z,4.72
2022-08-04T12:57:47.999Z,11.20
2022-08-04T13:00:29.356Z,6.95
2022-08-04T13:03:04.545Z,5.07
2022-08-04T13:05:33.240Z,7.13
2022-08-04T13:08:02.846Z,5.00
2022-08-04T13:10:37.122Z,3.85
2022-08-04T13:13:04.453Z,4.38
2022-08-04T13:15:33.573Z,7.38
2022-08-04T13:18:15.577Z,5.50
2022-08-04T13:20:44.805Z,13.55
2022-08-04T13:23:15.066Z,6.72
2022-08-04T13:26:43.810Z,5.03
2022-08-04T13:28:43.145Z,3.58
2022-08-04T13:31:14.215Z,6.63
2022-08-04T13:33:45.740Z,3.67
2022-08-04T13:36:13.161Z,2.13
2022-08-04T13:38:46.518Z,5.63
2022-08-04T13:41:17.780Z,5.32
2022-08-04T13:44:19.291Z,4.55
2022-08-04T13:46:39.398Z,8.73
2022-08-04T13:52:00.847Z,5.10
2022-08-04T13:54:36.119Z,4.07
2022-08-04T13:57:15.903Z,12.90
2022-08-04T13:59:47.973Z,5.93
2022-08-04T14:02:29.180Z,7.68
2022-08-04T14:05:01.687Z,10.63
2022-08-04T14:07:30.706Z,9.07
2022-08-04T14:10:03.588Z,4.32
2022-08-04T14:12:38.645Z,8.85
2022-08-04T14:15:54.772Z,10.35
2022-08-04T14:18:24.399Z,4.07
2022-08-04T14:21:04.772Z,3.83
2022-08-04T14:23:47.063Z,6.47
2022-08-04T14:26:19.515Z,8.77
2022-08-04T14:29:09.706Z,7.50
2022-08-04T14:31:35.677Z,7.00
2022-08-04T14:34:17.904Z,8.18
2022-08-04T14:37:13.313Z,9.63
2022-08-04T14:39:40.983Z,7.55
2022-08-04T14:42:08.435Z,6.97
2022-08-04T14:44:53.522Z,5.88
2022-08-04T14:47:38.597Z,6.13
2022-08-04T14:50:06.524Z,8.90
2022-08-04T14:52:37.015Z,7.72
2022-08-04T14:55:17.521Z,5.00
2022-08-04T14:58:37.443Z,5.15
2022-08-04T15:00:36.387Z,7.43
2022-08-04T15:03:06.873Z,3.83
2022-08-04T15:05:59.834Z,6.63
2022-08-04T15:08:20.621Z,5.30
2022-08-04T15:10:49.982Z,7.22
2022-08-04T15:13:16.788Z,7.88
2022-08-04T15:16:00.951Z,6.03
2022-08-04T15:18:33.577Z,7.93
2022-08-04T15:21:02.398Z,4.63
2022-08-04T15:23:38.590Z,7.03
2022-08-04T15:26:10.697Z,4.80
2022-08-04T15:28:40.559Z,4.60
2022-08-04T15:32:07.513Z,5.50
2022-08-04T15:33:58.101Z,5.80
2022-08-04T15:36:34.879Z,9.65
2022-08-04T15:39:11.889Z,9.02
2022-08-04T15:41:55.262Z,4.55
2022-08-04T15:44:54.151Z,3.38
2022-08-04T15:47:27.404Z,5.00
2022-08-04T15:50:06.815Z,3.17
2022-08-04T15:53:12.676Z,5.68
2022-08-04T15:55:42.043Z,7.22
2022-08-04T15:58:11.051Z,4.50
2022-08-04T16:01:15.852Z,4.60
2022-08-04T16:04:00.441Z,13.35
2022-08-04T16:06:49.150Z,8.80
2022-08-04T16:09:45.250Z,5.70
2022-08-04T16:12:56.030Z,6.28
2022-08-04T16:15:40.719Z,7.57
2022-08-04T16:18:12.272Z,6.20
2022-08-04T16:20:46.807Z,4.70
2022-08-04T16:24:06.096Z,5.70
2022-08-04T16:26:55.064Z,15.77
2022-08-04T16:29:42.008Z,16.95
2022-08-04T16:32:14.023Z,6.93
2022-08-04T16:34:50.348Z,8.63
2022-08-04T16:37:29.722Z,7.63
2022-08-04T16:40:38.506Z,3.95
2022-08-04T16:43:09.255Z,5.38
2022-08-04T16:45:46.951Z,7.75
2022-08-04T16:48:15.044Z,5.10
2022-08-04T16:50:56.824Z,7.20
2022-08-04T16:54:02.741Z,6.03
2022-08-04T16:56:18.716Z,10.13
2022-08-04T16:58:52.938Z,4.47
2022-08-04T17:01:33.173Z,5.07
2022-08-04T17:04:05.408Z,9.38
2022-08-04T17:06:35.371Z,5.13
2022-08-04T17:09:07.207Z,4.55
2022-08-04T17:11:34.055Z,6.13
2022-08-04T17:14:05.485Z,5.88
2022-08-04T17:16:34.551Z,5.13
2022-08-04T17:19:02.014Z,7.05
2022-08-04T17:21:31.489Z,4.53
2022-08-04T17:24:13.092Z,8.48
2022-08-04T17:26:53.820Z,6.43
2022-08-04T17:29:21.776Z,8.90
2022-08-04T17:31:48.729Z,11.07
2022-08-04T17:34:21.570Z,6.38
2022-08-04T17:36:48.677Z,11.00
2022-08-04T17:39:19.982Z,9.70
2022-08-04T17:41:55.914Z,5.63
2022-08-04T17:44:36.640Z,12.20
2022-08-04T17:47:12.752Z,12.15
2022-08-04T17:49:52.540Z,3.20
2022-08-04T17:52:37.410Z,8.77
2022-08-04T17:55:16.376Z,7.90
2022-08-04T17:57:52.373Z,7.00
2022-08-04T18:00:20.110Z,6.80
2022-08-04T18:02:53.490Z,3.92
2022-08-04T18:05:50.257Z,3.63
2022-08-04T18:08:46.277Z,4.95
2022-08-04T18:11:02.221Z,8.10
2022-08-04T18:13:31.395Z,4.90
2022-08-04T18:16:22.961Z,3.83
2022-08-04T18:19:08.590Z,5.03
2022-08-04T18:21:46.932Z,3.80
2022-08-04T18:24:22.148Z,4.90
2022-08-04T18:27:03.429Z,5.93
2022-08-04T18:29:39.230Z,11.75
2022-08-04T18:32:06.980Z,7.32
2022-08-04T18:34:36.561Z,5.07
2022-08-04T18:38:03.542Z,4.13
2022-08-04T18:40:29.909Z,3.88
2022-08-04T18:42:57.932Z,3.92
2022-08-04T18:45:33.899Z,7.18
2022-08-04T18:48:01.928Z,4.82
2022-08-04T18:50:59.381Z,8.73
2022-08-04T18:53:16.618Z,8.57
2022-08-04T18:55:57.186Z,5.97
2022-08-04T18:58:27.151Z,4.50
2022-08-04T19:00:56.239Z,5.60
2022-08-04T19:03:30.609Z,5.40
2022-08-04T19:05:58.414Z,3.40
2022-08-04T19:08:34.438Z,5.90
2022-08-04T19:11:28.737Z,3.97
2022-08-04T19:13:54.483Z,5.32
2022-08-04T19:16:26.920Z,6.78
2022-08-04T19:18:53.708Z,2.33
2022-08-04T19:22:01.343Z,3.08
2022-08-04T19:24:32.746Z,5.78
2022-08-04T19:26:56.572Z,9.75
2022-08-04T19:29:23.628Z,5.47
2022-08-04T19:31:51.788Z,4.47
2022-08-04T19:34:33.130Z,4.40
2022-08-04T19:37:01.805Z,4.80
2022-08-04T19:39:31.430Z,4.07
2022-08-04T19:42:05.099Z,3.13
2022-08-04T19:44:33.109Z,5.43
2022-08-04T19:47:02.260Z,6.35
2022-08-04T19:50:04.824Z,5.50
2022-08-04T19:55:09.730Z,4.82
2022-08-04T19:57:38.037Z,4.15
2022-08-04T20:00:10.187Z,5.57
2022-08-04T20:02:38.944Z,5.93
2022-08-04T20:05:09.039Z,6.88
2022-08-04T20:07:36.294Z,10.18
2022-08-04T20:10:04.599Z,5.47
2022-08-04T20:12:31.732Z,5.38
2022-08-04T20:14:59.611Z,8.55
2022-08-04T20:18:08.232Z,5.38
2022-08-04T20:20:14.836Z,5.40
2022-08-04T20:22:50.639Z,6.47
2022-08-04T20:25:36.770Z,7.03
2022-08-04T20:28:05.259Z,5.82
2022-08-04T20:30:35.726Z,5.55
2022-08-04T20:36:05.097Z,8.13
2022-08-04T20:41:19.123Z,7.75
2022-08-04T20:43:49.789Z,4.03
2022-08-04T20:49:05.077Z,5.50
2022-08-04T20:51:39.942Z,6.28
2022-08-04T20:54:16.613Z,10.73
2022-08-04T20:56:50.755Z,4.72
2022-08-04T20:59:18.396Z,2.97
2022-08-04T21:01:49.078Z,7.85
2022-08-04T21:04:32.173Z,8.98
2022-08-04T21:07:01.636Z,4.35
2022-08-04T21:09:38.244Z,4.53
2022-08-04T21:12:10.450Z,6.60
2022-08-04T21:14:37.280Z,8.57
2022-08-04T21:17:07.357Z,4.30
2022-08-04T21:19:36.850Z,9.13
2022-08-04T21:22:10.251Z,4.95
2022-08-04T21:24:37.676Z,4.68
2022-08-04T21:27:09.704Z,5.07
2022-08-04T21:29:37.181Z,7.75
2022-08-04T21:32:07.673Z,5.07
2022-08-04T21:34:39.038Z,14.98
2022-08-04T21:37:10.404Z,8.68
2022-08-04T21:39:58.782Z,5.22
2022-08-04T21:42:28.322Z,6.35
2022-08-04T21:44:57.589Z,10.07
2022-08-04T21:47:24.438Z,13.18
2022-08-04T21:49:55.997Z,6.10
2022-08-04T21:52:25.554Z,11.93
2022-08-04T21:54:54.202Z,6.88
2022-08-04T21:57:24.830Z,6.10
2022-08-04T21:59:52.130Z,6.47
2022-08-04T22:02:19.152Z,5.43
2022-08-04T22:04:48.206Z,11.57
2022-08-04T22:07:16.740Z,6.25
2022-08-04T22:10:00.149Z,8.05
2022-08-04T22:12:27.491Z,9.55
2022-08-04T22:14:57.590Z,9.05
2022-08-04T22:17:27.072Z,6.07
2022-08-04T22:20:02.090Z,5.93
2022-08-04T22:22:30.020Z,7.35
2022-08-04T22:25:01.298Z,8.25
2022-08-04T22:27:47.557Z,9.85
2022-08-04T22:30:17.066Z,12.98
2022-08-04T22:32:44.920Z,7.35
2022-08-04T22:35:36.121Z,5.20
2022-08-04T22:38:06.150Z,4.18
2022-08-04T22:40:41.001Z,5.78
2022-08-04T22:43:32.239Z,6.13
2022-08-04T22:45:54.730Z,4.35
2022-08-04T22:48:22.806Z,4.10
2022-08-04T22:50:49.536Z,9.48
2022-08-04T22:53:18.096Z,10.88
2022-08-04T22:56:06.930Z,7.63
2022-08-04T22:58:33.520Z,9.70
2022-08-04T23:01:00.867Z,8.77
2022-08-04T23:03:37.302Z,5.88
2022-08-04T23:06:06.435Z,7.97
2022-08-04T23:08:37.347Z,9.63
2022-08-04T23:11:09.414Z,7.75
2022-08-04T23:13:36.221Z,8.80
2022-08-04T23:16:05.206Z,7.35
2022-08-04T23:18:36.599Z,8.25
2022-08-04T23:21:07.728Z,12.60
2022-08-04T23:23:34.898Z,5.60
2022-08-04T23:26:08.243Z,7.70
2022-08-04T23:28:39.370Z,9.38
2022-08-04T23:31:06.637Z,10.73
2022-08-04T23:33:51.181Z,6.97
2022-08-04T23:36:18.491Z,7.03
2022-08-04T23:38:45.617Z,8.93
2022-08-04T23:41:17.225Z,7.30
2022-08-04T23:43:54.914Z,5.18
2022-08-04T23:46:22.553Z,9.70
2022-08-04T23:48:49.632Z,8.07
2022-08-04T23:51:16.747Z,5.25
2022-08-04T23:54:03.106Z,9.32
2022-08-04T23:56:31.807Z,9.43
2022-08-04T23:59:03.456Z,10.73
